sensor_id;sensor_type;location;lat;lon;timestamp;pressure;altitude;pressure_sealevel;temperature;humidity
30935;BME280;51033;42.648;23.292;2022-12-10T00:01:45;93226.19;;;9.41;63.08
30935;BME280;51033;42.648;23.292;2022-12-10T00:04:11;93204.31;;;9.44;62.70
30935;BME280;51033;42.648;23.292;2022-12-10T00:06:37;93215.34;;;9.55;62.47
30935;BME280;51033;42.648;23.292;2022-12-10T00:09:03;93205.31;;;9.60;61.99
30935;BME280;51033;42.648;23.292;2022-12-10T00:11:29;93211.22;;;9.66;61.93
30935;BME280;51033;42.648;23.292;2022-12-10T00:13:55;93208.88;;;9.64;62.05
30935;BME280;51033;42.648;23.292;2022-12-10T00:16:21;93205.72;;;9.71;61.93
30935;BME280;51033;42.648;23.292;2022-12-10T00:18:47;93217.13;;;9.71;61.84
30935;BME280;51033;42.648;23.292;2022-12-10T00:21:13;93210.38;;;9.74;61.64
30935;BME280;51033;42.648;23.292;2022-12-10T00:23:39;93218.63;;;9.81;61.66
30935;BME280;51033;42.648;23.292;2022-12-10T00:26:09;93202.69;;;9.81;61.32
30935;BME280;51033;42.648;23.292;2022-12-10T00:28:36;93214.06;;;9.61;61.69
30935;BME280;51033;42.648;23.292;2022-12-10T00:31:05;93209.78;;;9.68;62.11
30935;BME280;51033;42.648;23.292;2022-12-10T00:33:30;93212.09;;;9.49;62.15
30935;BME280;51033;42.648;23.292;2022-12-10T00:35:56;93206.38;;;9.38;62.63
30935;BME280;51033;42.648;23.292;2022-12-10T00:38:21;93208.38;;;9.41;62.50
30935;BME280;51033;42.648;23.292;2022-12-10T00:40:46;93194.75;;;9.52;62.24
30935;BME280;51033;42.648;23.292;2022-12-10T00:43:11;93207.38;;;9.55;62.36
30935;BME280;51033;42.648;23.292;2022-12-10T00:45:37;93209.31;;;9.45;62.42
30935;BME280;51033;42.648;23.292;2022-12-10T00:48:02;93209.25;;;9.54;62.49
30935;BME280;51033;42.648;23.292;2022-12-10T00:50:27;93208.47;;;9.54;62.70
30935;BME280;51033;42.648;23.292;2022-12-10T00:52:53;93222.88;;;9.53;62.86
30935;BME280;51033;42.648;23.292;2022-12-10T00:55:18;93224.38;;;9.62;62.60
30935;BME280;51033;42.648;23.292;2022-12-10T00:57:43;93225.34;;;9.49;63.13
30935;BME280;51033;42.648;23.292;2022-12-10T01:00:08;93222.53;;;9.54;63.08
30935;BME280;51033;42.648;23.292;2022-12-10T01:02:34;93228.84;;;9.41;63.40
30935;BME280;51033;42.648;23.292;2022-12-10T01:04:59;93214.16;;;9.43;63.85
30935;BME280;51033;42.648;23.292;2022-12-10T01:07:24;93216.63;;;9.49;63.71
30935;BME280;51033;42.648;23.292;2022-12-10T01:09:50;93208.34;;;9.50;63.90
30935;BME280;51033;42.648;23.292;2022-12-10T01:12:15;93218.34;;;9.53;63.72
30935;BME280;51033;42.648;23.292;2022-12-10T01:14:40;93210.03;;;9.55;63.52
30935;BME280;51033;42.648;23.292;2022-12-10T01:17:05;93204.88;;;9.58;63.73
30935;BME280;51033;42.648;23.292;2022-12-10T01:19:32;93203.91;;;9.63;63.68
30935;BME280;51033;42.648;23.292;2022-12-10T01:21:58;93195.41;;;9.69;63.46
30935;BME280;51033;42.648;23.292;2022-12-10T01:24:24;93196.13;;;9.28;64.73
30935;BME280;51033;42.648;23.292;2022-12-10T01:26:49;93200.66;;;9.28;65.29
30935;BME280;51033;42.648;23.292;2022-12-10T01:29:15;93202.16;;;9.37;65.17
30935;BME280;51033;42.648;23.292;2022-12-10T01:31:40;93170.94;;;9.34;64.49
30935;BME280;51033;42.648;23.292;2022-12-10T01:34:07;93182.13;;;9.19;64.87
30935;BME280;51033;42.648;23.292;2022-12-10T01:36:34;93175.09;;;9.15;65.70
30935;BME280;51033;42.648;23.292;2022-12-10T01:39:00;93176.81;;;9.19;65.55
30935;BME280;51033;42.648;23.292;2022-12-10T01:41:27;93188.69;;;9.13;65.65
30935;BME280;51033;42.648;23.292;2022-12-10T01:44:00;93195.56;;;9.14;66.32
30935;BME280;51033;42.648;23.292;2022-12-10T01:46:29;93174.13;;;9.28;65.67
30935;BME280;51033;42.648;23.292;2022-12-10T01:48:55;93172.69;;;9.30;65.07
30935;BME280;51033;42.648;23.292;2022-12-10T01:51:21;93197.94;;;9.36;65.02
30935;BME280;51033;42.648;23.292;2022-12-10T01:53:46;93177.31;;;9.42;65.08
30935;BME280;51033;42.648;23.292;2022-12-10T01:56:13;93195.19;;;9.54;64.48
30935;BME280;51033;42.648;23.292;2022-12-10T01:58:40;93178.81;;;9.52;64.48
30935;BME280;51033;42.648;23.292;2022-12-10T02:01:07;93181.94;;;9.54;64.50
30935;BME280;51033;42.648;23.292;2022-12-10T02:03:51;93170.56;;;9.53;64.19
30935;BME280;51033;42.648;23.292;2022-12-10T02:09:02;93200.28;;;9.38;65.21
30935;BME280;51033;42.648;23.292;2022-12-10T02:11:33;93200.72;;;9.49;64.92
30935;BME280;51033;42.648;23.292;2022-12-10T02:14:03;93195.19;;;9.24;64.90
30935;BME280;51033;42.648;23.292;2022-12-10T02:16:34;93206.50;;;9.42;64.95
30935;BME280;51033;42.648;23.292;2022-12-10T02:19:38;93185.53;;;9.49;64.78
30935;BME280;51033;42.648;23.292;2022-12-10T02:21:53;93174.59;;;9.51;64.74
30935;BME280;51033;42.648;23.292;2022-12-10T02:24:21;93185.81;;;9.56;64.51
30935;BME280;51033;42.648;23.292;2022-12-10T02:27:04;93182.38;;;9.56;63.84
30935;BME280;51033;42.648;23.292;2022-12-10T02:29:34;93165.44;;;9.39;64.70
30935;BME280;51033;42.648;23.292;2022-12-10T02:32:05;93148.63;;;9.35;64.93
30935;BME280;51033;42.648;23.292;2022-12-10T02:34:33;93153.78;;;8.94;66.22
30935;BME280;51033;42.648;23.292;2022-12-10T02:37:02;93156.63;;;8.89;66.85
30935;BME280;51033;42.648;23.292;2022-12-10T02:39:31;93146.28;;;9.05;66.42
30935;BME280;51033;42.648;23.292;2022-12-10T02:41:59;93150.75;;;8.75;67.37
30935;BME280;51033;42.648;23.292;2022-12-10T02:44:25;93143.13;;;8.56;68.40
30935;BME280;51033;42.648;23.292;2022-12-10T02:46:53;93144.03;;;8.77;68.13
30935;BME280;51033;42.648;23.292;2022-12-10T02:49:20;93148.41;;;8.73;68.32
30935;BME280;51033;42.648;23.292;2022-12-10T02:51:46;93158.66;;;8.83;68.18
30935;BME280;51033;42.648;23.292;2022-12-10T02:56:58;93169.78;;;9.15;67.48
30935;BME280;51033;42.648;23.292;2022-12-10T03:00:00;93150.50;;;8.97;67.10
30935;BME280;51033;42.648;23.292;2022-12-10T03:02:19;93151.22;;;9.06;66.55
30935;BME280;51033;42.648;23.292;2022-12-10T03:05:02;93143.13;;;9.11;66.69
30935;BME280;51033;42.648;23.292;2022-12-10T03:07:42;93153.16;;;8.97;67.26
30935;BME280;51033;42.648;23.292;2022-12-10T03:10:18;93149.84;;;9.00;67.31
30935;BME280;51033;42.648;23.292;2022-12-10T03:12:48;93153.16;;;8.97;67.31
30935;BME280;51033;42.648;23.292;2022-12-10T03:15:15;93167.22;;;8.89;67.87
30935;BME280;51033;42.648;23.292;2022-12-10T03:17:41;93143.97;;;8.94;68.03
30935;BME280;51033;42.648;23.292;2022-12-10T03:20:10;93150.00;;;9.12;67.47
30935;BME280;51033;42.648;23.292;2022-12-10T03:22:36;93150.91;;;9.16;67.51
30935;BME280;51033;42.648;23.292;2022-12-10T03:25:04;93089.38;;;8.93;66.68
30935;BME280;51033;42.648;23.292;2022-12-10T03:27:29;93152.34;;;9.43;66.52
30935;BME280;51033;42.648;23.292;2022-12-10T03:29:56;93131.16;;;9.55;66.45
30935;BME280;51033;42.648;23.292;2022-12-10T03:32:23;93129.63;;;9.54;66.02
30935;BME280;51033;42.648;23.292;2022-12-10T03:34:50;93135.56;;;9.51;66.08
30935;BME280;51033;42.648;23.292;2022-12-10T03:37:16;93144.06;;;9.65;65.76
30935;BME280;51033;42.648;23.292;2022-12-10T03:39:42;93149.00;;;9.75;65.48
30935;BME280;51033;42.648;23.292;2022-12-10T03:42:07;93156.31;;;9.78;65.22
30935;BME280;51033;42.648;23.292;2022-12-10T03:44:34;93113.75;;;9.45;65.48
30935;BME280;51033;42.648;23.292;2022-12-10T03:46:59;93134.38;;;9.40;66.25
30935;BME280;51033;42.648;23.292;2022-12-10T03:49:25;93120.94;;;9.45;66.18
30935;BME280;51033;42.648;23.292;2022-12-10T03:51:50;93116.34;;;9.33;66.34
30935;BME280;51033;42.648;23.292;2022-12-10T03:54:16;93112.38;;;9.39;66.66
30935;BME280;51033;42.648;23.292;2022-12-10T03:56:41;93103.31;;;9.40;66.62
30935;BME280;51033;42.648;23.292;2022-12-10T03:59:06;93108.00;;;9.43;66.48
30935;BME280;51033;42.648;23.292;2022-12-10T04:01:31;93119.91;;;9.37;66.89
30935;BME280;51033;42.648;23.292;2022-12-10T04:03:57;93118.75;;;9.47;66.98
30935;BME280;51033;42.648;23.292;2022-12-10T04:06:22;93118.28;;;9.45;66.55
30935;BME280;51033;42.648;23.292;2022-12-10T04:08:47;93108.38;;;9.54;66.21
30935;BME280;51033;42.648;23.292;2022-12-10T04:11:13;93123.50;;;9.62;66.02
30935;BME280;51033;42.648;23.292;2022-12-10T04:13:39;93121.84;;;9.70;66.15
30935;BME280;51033;42.648;23.292;2022-12-10T04:16:24;93128.84;;;9.74;66.04
30935;BME280;51033;42.648;23.292;2022-12-10T04:18:53;93130.69;;;9.82;66.06
30935;BME280;51033;42.648;23.292;2022-12-10T04:21:18;93122.06;;;9.85;65.78
30935;BME280;51033;42.648;23.292;2022-12-10T04:24:02;93134.44;;;9.81;65.84
30935;BME280;51033;42.648;23.292;2022-12-10T04:26:46;93150.09;;;9.95;65.39
30935;BME280;51033;42.648;23.292;2022-12-10T04:29:22;93156.97;;;9.96;65.62
30935;BME280;51033;42.648;23.292;2022-12-10T04:31:47;93152.84;;;10.07;65.28
30935;BME280;51033;42.648;23.292;2022-12-10T04:34:13;93145.41;;;10.13;64.47
30935;BME280;51033;42.648;23.292;2022-12-10T04:36:38;93161.25;;;10.09;64.30
30935;BME280;51033;42.648;23.292;2022-12-10T04:39:04;93165.25;;;9.95;65.40
30935;BME280;51033;42.648;23.292;2022-12-10T04:41:29;93162.41;;;10.00;65.81
30935;BME280;51033;42.648;23.292;2022-12-10T04:43:54;93155.72;;;10.14;65.47
30935;BME280;51033;42.648;23.292;2022-12-10T04:46:20;93156.00;;;10.01;65.88
30935;BME280;51033;42.648;23.292;2022-12-10T04:48:45;93160.34;;;10.05;66.04
30935;BME280;51033;42.648;23.292;2022-12-10T04:51:10;93151.00;;;10.20;65.70
30935;BME280;51033;42.648;23.292;2022-12-10T04:53:35;93132.91;;;10.13;66.02
30935;BME280;51033;42.648;23.292;2022-12-10T04:56:01;93149.94;;;10.12;66.04
30935;BME280;51033;42.648;23.292;2022-12-10T04:58:26;93154.72;;;10.07;66.52
30935;BME280;51033;42.648;23.292;2022-12-10T05:01:00;93138.59;;;9.91;67.35
30935;BME280;51033;42.648;23.292;2022-12-10T05:03:25;93146.81;;;9.77;68.14
30935;BME280;51033;42.648;23.292;2022-12-10T05:05:51;93145.84;;;9.82;68.49
30935;BME280;51033;42.648;23.292;2022-12-10T05:08:16;93148.66;;;9.98;67.98
30935;BME280;51033;42.648;23.292;2022-12-10T05:10:41;93133.13;;;10.08;67.13
30935;BME280;51033;42.648;23.292;2022-12-10T05:13:06;93126.38;;;10.11;67.21
30935;BME280;51033;42.648;23.292;2022-12-10T05:15:32;93140.09;;;10.13;66.98
30935;BME280;51033;42.648;23.292;2022-12-10T05:17:57;93135.34;;;10.06;67.43
30935;BME280;51033;42.648;23.292;2022-12-10T05:20:22;93121.97;;;10.15;67.17
30935;BME280;51033;42.648;23.292;2022-12-10T05:22:47;93125.31;;;10.24;67.21
30935;BME280;51033;42.648;23.292;2022-12-10T05:25:31;93119.22;;;10.23;67.20
30935;BME280;51033;42.648;23.292;2022-12-10T05:28:16;93130.91;;;10.10;67.64
30935;BME280;51033;42.648;23.292;2022-12-10T05:30:41;93129.34;;;10.09;67.72
30935;BME280;51033;42.648;23.292;2022-12-10T05:33:06;93138.94;;;10.22;67.18
30935;BME280;51033;42.648;23.292;2022-12-10T05:35:32;93148.66;;;10.18;67.27
30935;BME280;51033;42.648;23.292;2022-12-10T05:37:57;93140.88;;;10.13;66.83
30935;BME280;51033;42.648;23.292;2022-12-10T05:40:22;93134.16;;;10.16;67.44
30935;BME280;51033;42.648;23.292;2022-12-10T05:42:47;93136.72;;;10.24;66.96
30935;BME280;51033;42.648;23.292;2022-12-10T05:45:13;93154.88;;;10.22;66.43
30935;BME280;51033;42.648;23.292;2022-12-10T05:47:38;93148.34;;;10.20;66.96
30935;BME280;51033;42.648;23.292;2022-12-10T05:50:03;93145.81;;;10.23;66.90
30935;BME280;51033;42.648;23.292;2022-12-10T05:52:29;93148.25;;;10.28;66.41
30935;BME280;51033;42.648;23.292;2022-12-10T05:54:54;93156.69;;;10.30;66.34
30935;BME280;51033;42.648;23.292;2022-12-10T05:57:19;93156.03;;;10.33;66.18
30935;BME280;51033;42.648;23.292;2022-12-10T05:59:45;93157.84;;;10.42;65.96
30935;BME280;51033;42.648;23.292;2022-12-10T06:02:10;93154.34;;;10.50;65.87
30935;BME280;51033;42.648;23.292;2022-12-10T06:04:35;93161.88;;;10.48;65.81
30935;BME280;51033;42.648;23.292;2022-12-10T06:07:00;93166.94;;;10.41;66.31
30935;BME280;51033;42.648;23.292;2022-12-10T06:09:26;93159.66;;;10.50;65.91
30935;BME280;51033;42.648;23.292;2022-12-10T06:11:51;93153.69;;;10.53;65.88
30935;BME280;51033;42.648;23.292;2022-12-10T06:14:16;93157.44;;;10.52;66.11
30935;BME280;51033;42.648;23.292;2022-12-10T06:16:42;93159.88;;;10.45;66.64
30935;BME280;51033;42.648;23.292;2022-12-10T06:19:07;93145.09;;;10.35;66.69
30935;BME280;51033;42.648;23.292;2022-12-10T06:21:32;93154.34;;;10.50;66.74
30935;BME280;51033;42.648;23.292;2022-12-10T06:23:59;93156.53;;;10.48;66.65
30935;BME280;51033;42.648;23.292;2022-12-10T06:26:25;93154.13;;;10.22;67.96
30935;BME280;51033;42.648;23.292;2022-12-10T06:28:50;93157.03;;;10.08;68.83
30935;BME280;51033;42.648;23.292;2022-12-10T06:31:16;93138.03;;;10.18;69.13
30935;BME280;51033;42.648;23.292;2022-12-10T06:33:42;93127.88;;;10.32;68.31
30935;BME280;51033;42.648;23.292;2022-12-10T06:36:08;93131.53;;;10.28;68.57
30935;BME280;51033;42.648;23.292;2022-12-10T06:38:34;93112.34;;;10.22;69.22
30935;BME280;51033;42.648;23.292;2022-12-10T06:41:00;93114.94;;;10.31;68.95
30935;BME280;51033;42.648;23.292;2022-12-10T06:43:28;93136.63;;;10.21;69.62
30935;BME280;51033;42.648;23.292;2022-12-10T06:45:53;93136.72;;;10.24;69.62
30935;BME280;51033;42.648;23.292;2022-12-10T06:48:18;93136.03;;;10.36;69.18
30935;BME280;51033;42.648;23.292;2022-12-10T06:50:43;93151.44;;;10.43;69.25
30935;BME280;51033;42.648;23.292;2022-12-10T06:53:09;93154.16;;;10.55;68.74
30935;BME280;51033;42.648;23.292;2022-12-10T06:55:35;93163.78;;;10.59;68.59
30935;BME280;51033;42.648;23.292;2022-12-10T06:58:01;93168.22;;;10.55;69.26
30935;BME280;51033;42.648;23.292;2022-12-10T07:00:26;93163.28;;;10.66;68.52
30935;BME280;51033;42.648;23.292;2022-12-10T07:02:51;93163.81;;;10.71;68.42
30935;BME280;51033;42.648;23.292;2022-12-10T07:05:17;93161.88;;;10.81;68.53
30935;BME280;51033;42.648;23.292;2022-12-10T07:07:42;93167.72;;;10.86;68.28
30935;BME280;51033;42.648;23.292;2022-12-10T07:10:08;93165.53;;;10.88;68.35
30935;BME280;51033;42.648;23.292;2022-12-10T07:12:33;93162.66;;;10.93;68.43
30935;BME280;51033;42.648;23.292;2022-12-10T07:14:58;93169.53;;;10.94;67.77
30935;BME280;51033;42.648;23.292;2022-12-10T07:17:23;93173.19;;;10.90;68.16
30935;BME280;51033;42.648;23.292;2022-12-10T07:19:49;93159.31;;;10.84;68.44
30935;BME280;51033;42.648;23.292;2022-12-10T07:22:14;93153.31;;;10.87;68.75
30935;BME280;51033;42.648;23.292;2022-12-10T07:24:39;93149.81;;;10.95;68.46
30935;BME280;51033;42.648;23.292;2022-12-10T07:27:05;93134.06;;;10.90;68.65
30935;BME280;51033;42.648;23.292;2022-12-10T07:29:31;93132.94;;;10.91;68.89
30935;BME280;51033;42.648;23.292;2022-12-10T07:31:56;93141.47;;;10.85;69.23
30935;BME280;51033;42.648;23.292;2022-12-10T07:34:22;93132.72;;;10.84;68.80
30935;BME280;51033;42.648;23.292;2022-12-10T07:36:47;93127.16;;;10.77;69.25
30935;BME280;51033;42.648;23.292;2022-12-10T07:39:13;93144.56;;;10.74;69.39
30935;BME280;51033;42.648;23.292;2022-12-10T07:41:42;93129.06;;;10.89;69.11
30935;BME280;51033;42.648;23.292;2022-12-10T07:44:09;93144.47;;;10.83;68.95
30935;BME280;51033;42.648;23.292;2022-12-10T07:46:35;93146.31;;;10.70;69.58
30935;BME280;51033;42.648;23.292;2022-12-10T07:49:01;93144.66;;;10.78;69.59
30935;BME280;51033;42.648;23.292;2022-12-10T07:51:27;93133.28;;;10.90;69.96
30935;BME280;51033;42.648;23.292;2022-12-10T07:53:52;93134.06;;;10.90;69.71
30935;BME280;51033;42.648;23.292;2022-12-10T07:56:18;93133.50;;;10.97;69.72
30935;BME280;51033;42.648;23.292;2022-12-10T07:58:44;93134.06;;;11.02;69.51
30935;BME280;51033;42.648;23.292;2022-12-10T08:01:11;93122.75;;;11.05;69.65
30935;BME280;51033;42.648;23.292;2022-12-10T08:03:37;93120.78;;;11.14;69.52
30935;BME280;51033;42.648;23.292;2022-12-10T08:06:17;93125.63;;;11.12;69.28
30935;BME280;51033;42.648;23.292;2022-12-10T08:08:43;93104.56;;;11.07;69.37
30935;BME280;51033;42.648;23.292;2022-12-10T08:11:09;93097.25;;;11.16;69.83
30935;BME280;51033;42.648;23.292;2022-12-10T08:13:34;93101.78;;;11.16;69.85
30935;BME280;51033;42.648;23.292;2022-12-10T08:16:04;93094.13;;;11.27;69.66
30935;BME280;51033;42.648;23.292;2022-12-10T08:18:30;93095.47;;;11.33;69.08
30935;BME280;51033;42.648;23.292;2022-12-10T08:20:55;93099.69;;;11.34;69.47
30935;BME280;51033;42.648;23.292;2022-12-10T08:23:21;93093.22;;;11.35;69.40
30935;BME280;51033;42.648;23.292;2022-12-10T08:25:46;93107.78;;;11.37;69.85
30935;BME280;51033;42.648;23.292;2022-12-10T08:28:11;93099.78;;;11.37;69.46
30935;BME280;51033;42.648;23.292;2022-12-10T08:30:36;93096.38;;;11.12;70.41
30935;BME280;51033;42.648;23.292;2022-12-10T08:33:02;93089.69;;;11.31;70.38
30935;BME280;51033;42.648;23.292;2022-12-10T08:35:27;93091.72;;;11.34;70.02
30935;BME280;51033;42.648;23.292;2022-12-10T08:37:53;93091.38;;;11.23;69.90
30935;BME280;51033;42.648;23.292;2022-12-10T08:40:18;93091.47;;;11.39;69.50
30935;BME280;51033;42.648;23.292;2022-12-10T08:42:43;93078.84;;;11.24;68.60
30935;BME280;51033;42.648;23.292;2022-12-10T08:45:09;93082.38;;;11.15;68.98
30935;BME280;51033;42.648;23.292;2022-12-10T08:47:34;93079.50;;;11.33;68.49
30935;BME280;51033;42.648;23.292;2022-12-10T08:49:59;93072.16;;;11.42;68.59
30935;BME280;51033;42.648;23.292;2022-12-10T08:52:25;93083.78;;;11.49;67.85
30935;BME280;51033;42.648;23.292;2022-12-10T08:54:50;93084.91;;;11.60;67.83
30935;BME280;51033;42.648;23.292;2022-12-10T08:57:15;93091.03;;;11.49;67.79
30935;BME280;51033;42.648;23.292;2022-12-10T08:59:41;93082.50;;;11.31;68.27
30935;BME280;51033;42.648;23.292;2022-12-10T09:02:08;93072.84;;;11.39;68.43
30935;BME280;51033;42.648;23.292;2022-12-10T09:04:35;93066.84;;;11.42;68.63
30935;BME280;51033;42.648;23.292;2022-12-10T09:07:00;93062.19;;;11.39;68.47
30935;BME280;51033;42.648;23.292;2022-12-10T09:09:26;93050.19;;;11.45;68.73
30935;BME280;51033;42.648;23.292;2022-12-10T09:11:52;93048.88;;;11.51;68.74
30935;BME280;51033;42.648;23.292;2022-12-10T09:14:17;93048.88;;;11.51;68.37
30935;BME280;51033;42.648;23.292;2022-12-10T09:16:42;93053.28;;;11.59;68.51
30935;BME280;51033;42.648;23.292;2022-12-10T09:19:07;93056.31;;;11.57;67.81
30935;BME280;51033;42.648;23.292;2022-12-10T09:21:33;93065.06;;;11.58;67.56
30935;BME280;51033;42.648;23.292;2022-12-10T09:23:59;93053.94;;;11.68;67.42
30935;BME280;51033;42.648;23.292;2022-12-10T09:26:24;93051.97;;;11.53;67.85
30935;BME280;51033;42.648;23.292;2022-12-10T09:28:50;93061.19;;;11.55;67.88
30935;BME280;51033;42.648;23.292;2022-12-10T09:31:16;93053.50;;;11.66;68.25
30935;BME280;51033;42.648;23.292;2022-12-10T09:33:41;93047.47;;;11.81;67.49
30935;BME280;51033;42.648;23.292;2022-12-10T09:36:08;93030.00;;;11.84;66.42
30935;BME280;51033;42.648;23.292;2022-12-10T09:38:34;93022.69;;;11.53;67.68
30935;BME280;51033;42.648;23.292;2022-12-10T09:41:01;93026.34;;;11.48;68.61
30935;BME280;51033;42.648;23.292;2022-12-10T09:48:31;93018.41;;;11.76;67.06
30935;BME280;51033;42.648;23.292;2022-12-10T09:53:32;93023.25;;;11.86;66.10
30935;BME280;51033;42.648;23.292;2022-12-10T09:55:57;93020.50;;;11.98;66.18
30935;BME280;51033;42.648;23.292;2022-12-10T09:58:23;93019.84;;;12.01;65.91
30935;BME280;51033;42.648;23.292;2022-12-10T10:00:50;93014.88;;;12.16;65.69
30935;BME280;51033;42.648;23.292;2022-12-10T10:03:17;93016.84;;;12.19;64.97
30935;BME280;51033;42.648;23.292;2022-12-10T10:05:47;93001.97;;;12.18;64.31
30935;BME280;51033;42.648;23.292;2022-12-10T10:08:14;93017.31;;;12.21;63.46
30935;BME280;51033;42.648;23.292;2022-12-10T10:10:44;92995.91;;;12.17;63.57
30935;BME280;51033;42.648;23.292;2022-12-10T10:13:19;92996.25;;;12.31;64.02
30935;BME280;51033;42.648;23.292;2022-12-10T10:15:50;93002.34;;;12.32;63.73
30935;BME280;51033;42.648;23.292;2022-12-10T10:18:36;92997.69;;;12.29;62.57
30935;BME280;51033;42.648;23.292;2022-12-10T10:21:04;92990.75;;;12.40;63.23
30935;BME280;51033;42.648;23.292;2022-12-10T10:23:30;92982.66;;;12.52;63.08
30935;BME280;51033;42.648;23.292;2022-12-10T10:25:55;92980.19;;;12.59;62.44
30935;BME280;51033;42.648;23.292;2022-12-10T10:28:21;92982.75;;;12.71;61.93
30935;BME280;51033;42.648;23.292;2022-12-10T10:30:47;92977.25;;;12.64;61.33
30935;BME280;51033;42.648;23.292;2022-12-10T10:33:13;92980.97;;;12.75;62.03
30935;BME280;51033;42.648;23.292;2022-12-10T10:35:43;92966.53;;;12.61;62.54
30935;BME280;51033;42.648;23.292;2022-12-10T10:38:16;92950.31;;;12.69;61.12
30935;BME280;51033;42.648;23.292;2022-12-10T10:40:43;92945.06;;;12.73;60.51
30935;BME280;51033;42.648;23.292;2022-12-10T10:43:53;92947.13;;;12.79;61.43
30935;BME280;51033;42.648;23.292;2022-12-10T10:46:01;92946.81;;;12.65;61.12
30935;BME280;51033;42.648;23.292;2022-12-10T10:48:27;92949.53;;;12.69;61.51
30935;BME280;51033;42.648;23.292;2022-12-10T10:53:40;92937.75;;;12.85;61.52
30935;BME280;51033;42.648;23.292;2022-12-10T10:56:16;92930.16;;;12.87;60.95
30935;BME280;51033;42.648;23.292;2022-12-10T10:58:54;92933.66;;;12.92;60.84
30935;BME280;51033;42.648;23.292;2022-12-10T11:01:20;92940.16;;;12.75;60.52
30935;BME280;51033;42.648;23.292;2022-12-10T11:04:06;92937.84;;;12.73;60.97
30935;BME280;51033;42.648;23.292;2022-12-10T11:06:31;92930.72;;;12.97;61.10
30935;BME280;51033;42.648;23.292;2022-12-10T11:08:57;92924.22;;;13.13;60.51
30935;BME280;51033;42.648;23.292;2022-12-10T11:11:41;92915.31;;;13.25;60.54
30935;BME280;51033;42.648;23.292;2022-12-10T11:16:48;92889.16;;;13.53;59.65
30935;BME280;51033;42.648;23.292;2022-12-10T11:19:18;92885.66;;;13.49;58.92
30935;BME280;51033;42.648;23.292;2022-12-10T11:21:45;92891.34;;;13.67;59.36
30935;BME280;51033;42.648;23.292;2022-12-10T11:24:11;92887.75;;;13.79;59.56
30935;BME280;51033;42.648;23.292;2022-12-10T11:37:24;92876.06;;;13.87;58.61
30935;BME280;51033;42.648;23.292;2022-12-10T11:47:33;92871.28;;;13.99;58.32
30935;BME280;51033;42.648;23.292;2022-12-10T11:52:37;92859.19;;;14.05;57.91
30935;BME280;51033;42.648;23.292;2022-12-10T11:57:52;92859.75;;;14.18;57.44
30935;BME280;51033;42.648;23.292;2022-12-10T12:00:23;92858.94;;;14.14;57.76
30935;BME280;51033;42.648;23.292;2022-12-10T12:13:12;92851.34;;;14.16;56.95
30935;BME280;51033;42.648;23.292;2022-12-10T12:16:22;92847.59;;;14.21;57.11
30935;BME280;51033;42.648;23.292;2022-12-10T12:18:36;92837.63;;;14.17;56.75
30935;BME280;51033;42.648;23.292;2022-12-10T12:21:07;92839.03;;;14.11;57.08
30935;BME280;51033;42.648;23.292;2022-12-10T12:23:56;92831.06;;;14.15;57.07
30935;BME280;51033;42.648;23.292;2022-12-10T12:26:21;92829.69;;;13.98;57.98
30935;BME280;51033;42.648;23.292;2022-12-10T12:28:57;92817.22;;;13.83;58.77
30935;BME280;51033;42.648;23.292;2022-12-10T12:31:27;92808.28;;;13.98;58.44
30935;BME280;51033;42.648;23.292;2022-12-10T12:33:57;92819.56;;;14.11;58.24
30935;BME280;51033;42.648;23.292;2022-12-10T12:36:26;92813.13;;;14.15;58.64
30935;BME280;51033;42.648;23.292;2022-12-10T12:39:00;92809.44;;;14.24;58.65
30935;BME280;51033;42.648;23.292;2022-12-10T12:46:54;92782.22;;;14.44;58.14
30935;BME280;51033;42.648;23.292;2022-12-10T12:49:22;92786.13;;;14.50;58.25
30935;BME280;51033;42.648;23.292;2022-12-10T12:51:59;92789.16;;;14.49;58.36
30935;BME280;51033;42.648;23.292;2022-12-10T12:54:25;92774.38;;;14.55;57.96
30935;BME280;51033;42.648;23.292;2022-12-10T12:57:05;92774.72;;;14.53;58.06
30935;BME280;51033;42.648;23.292;2022-12-10T13:02:17;92767.59;;;14.61;57.53
30935;BME280;51033;42.648;23.292;2022-12-10T13:04:45;92762.69;;;14.67;57.46
30935;BME280;51033;42.648;23.292;2022-12-10T13:09:46;92758.13;;;14.71;57.48
30935;BME280;51033;42.648;23.292;2022-12-10T13:12:31;92765.00;;;14.72;57.31
30935;BME280;51033;42.648;23.292;2022-12-10T13:18:00;92750.38;;;14.62;57.39
30935;BME280;51033;42.648;23.292;2022-12-10T13:20:29;92757.25;;;14.63;57.31
30935;BME280;51033;42.648;23.292;2022-12-10T13:22:57;92763.38;;;14.64;57.65
30935;BME280;51033;42.648;23.292;2022-12-10T13:26:24;92768.03;;;14.67;57.40
30935;BME280;51033;42.648;23.292;2022-12-10T13:33:28;92726.09;;;14.78;57.27
30935;BME280;51033;42.648;23.292;2022-12-10T13:36:08;92720.72;;;14.74;56.85
30935;BME280;51033;42.648;23.292;2022-12-10T13:38:38;92721.00;;;14.66;57.46
30935;BME280;51033;42.648;23.292;2022-12-10T13:41:04;92713.97;;;14.54;57.60
30935;BME280;51033;42.648;23.292;2022-12-10T13:43:56;92712.34;;;14.19;58.05
30935;BME280;51033;42.648;23.292;2022-12-10T13:49:16;92717.53;;;14.35;57.68
30935;BME280;51033;42.648;23.292;2022-12-10T13:52:25;92711.72;;;14.30;57.89
30935;BME280;51033;42.648;23.292;2022-12-10T13:54:48;92723.19;;;14.30;58.44
30935;BME280;51033;42.648;23.292;2022-12-10T13:59:47;92725.13;;;14.33;57.98
30935;BME280;51033;42.648;23.292;2022-12-10T14:07:45;92723.47;;;14.51;57.63
30935;BME280;51033;42.648;23.292;2022-12-10T14:10:13;92719.91;;;14.44;57.74
30935;BME280;51033;42.648;23.292;2022-12-10T14:12:41;92713.66;;;14.33;57.89
30935;BME280;51033;42.648;23.292;2022-12-10T14:15:08;92717.72;;;14.23;58.47
30935;BME280;51033;42.648;23.292;2022-12-10T14:17:40;92710.56;;;14.01;58.44
30935;BME280;51033;42.648;23.292;2022-12-10T14:20:07;92693.03;;;14.03;58.54